createdAt,value
2019-02-05T00:00:45.667Z,23.17
2019-02-05T00:03:22.151Z,22.27
2019-02-05T00:05:54.488Z,23.37
2019-02-05T00:08:27.820Z,21.70
2019-02-05T00:11:00.142Z,23.37
2019-02-05T00:13:31.958Z,20.57
2019-02-05T00:16:03.883Z,24.83
2019-02-05T00:18:35.793Z,22.13
2019-02-05T00:21:07.702Z,22.07
2019-02-05T00:23:39.828Z,20.53
2019-02-05T00:26:11.774Z,20.57
2019-02-05T00:28:43.684Z,20.60
2019-02-05T00:31:15.637Z,21.47
2019-02-05T00:33:47.546Z,21.03
2019-02-05T00:36:19.363Z,22.57
2019-02-05T00:38:51.277Z,21.37
2019-02-05T00:41:23.138Z,19.73
2019-02-05T00:43:56.474Z,19.97
2019-02-05T00:46:28.403Z,21.37
2019-02-05T00:49:00.281Z,21.13
2019-02-05T00:51:32.196Z,21.13
2019-02-05T00:54:04.195Z,18.93
2019-02-05T00:56:36.135Z,18.47
2019-02-05T00:59:07.982Z,19.13
2019-02-05T01:01:39.983Z,19.03
2019-02-05T01:04:11.845Z,19.90
2019-02-05T01:06:45.017Z,20.23
2019-02-05T01:09:16.936Z,20.20
2019-02-05T01:11:49.147Z,19.37
2019-02-05T01:14:22.336Z,19.47
2019-02-05T01:16:54.241Z,18.97
2019-02-05T01:19:26.136Z,20.17
2019-02-05T01:21:58.098Z,18.73
2019-02-05T01:24:29.974Z,18.43
2019-02-05T01:27:01.849Z,19.47
2019-02-05T01:29:33.789Z,20.10
2019-02-05T01:32:06.681Z,19.37
2019-02-05T01:34:38.613Z,20.00
2019-02-05T01:37:10.413Z,19.93
2019-02-05T01:39:42.234Z,21.90
2019-02-05T01:42:14.104Z,17.87
2019-02-05T01:44:45.949Z,16.87
2019-02-05T01:47:17.796Z,19.93
2019-02-05T01:49:49.700Z,20.00
2019-02-05T01:52:21.602Z,18.90
2019-02-05T01:54:54.579Z,20.43
2019-02-05T01:57:26.413Z,19.77
2019-02-05T02:00:05.117Z,19.10
2019-02-05T02:02:37.053Z,20.33
2019-02-05T02:05:09.278Z,21.80
2019-02-05T02:07:42.638Z,20.10
2019-02-05T02:10:17.423Z,19.63
2019-02-05T02:12:49.388Z,21.10
2019-02-05T02:15:21.313Z,21.43
2019-02-05T02:17:53.166Z,21.37
2019-02-05T02:20:26.448Z,18.80
2019-02-05T02:22:58.740Z,17.50
2019-02-05T02:25:31.269Z,19.30
2019-02-05T02:28:03.189Z,20.03
2019-02-05T02:30:39.932Z,20.77
2019-02-05T02:33:11.783Z,21.60
2019-02-05T02:35:43.606Z,18.50
2019-02-05T02:38:15.452Z,21.53
2019-02-05T02:40:47.342Z,21.37
2019-02-05T02:43:20.071Z,23.17
2019-02-05T02:45:51.991Z,25.27
2019-02-05T02:48:23.823Z,23.17
2019-02-05T02:50:55.635Z,23.63
2019-02-05T02:53:27.479Z,24.20
2019-02-05T02:55:59.389Z,21.73
2019-02-05T02:58:31.310Z,22.97
2019-02-05T03:01:03.155Z,24.37
2019-02-05T03:03:35.047Z,23.67
2019-02-05T03:06:07.141Z,24.20
2019-02-05T03:08:42.759Z,24.83
2019-02-05T03:11:21.179Z,24.50
2019-02-05T03:13:53.090Z,25.73
2019-02-05T03:16:25.006Z,27.43
2019-02-05T03:21:56.294Z,25.50
2019-02-05T03:24:28.119Z,27.23
2019-02-05T03:27:01.118Z,26.57
2019-02-05T03:29:33.135Z,25.90
2019-02-05T03:32:06.635Z,26.73
2019-02-05T03:34:40.741Z,28.77
2019-02-05T03:37:15.191Z,26.60
2019-02-05T03:39:54.051Z,27.97
2019-02-05T03:42:27.444Z,29.70
2019-02-05T03:44:59.555Z,29.33
2019-02-05T03:47:32.418Z,31.43
2019-02-05T03:50:05.113Z,31.03
2019-02-05T03:52:52.135Z,28.23
2019-02-05T03:55:44.643Z,30.27
2019-02-05T03:58:45.259Z,29.83
2019-02-05T04:01:53.267Z,29.53
2019-02-05T04:04:47.448Z,29.63
2019-02-05T04:08:18.548Z,27.93
2019-02-05T04:11:26.721Z,30.27
2019-02-05T04:14:45.863Z,33.23
2019-02-05T04:18:10.932Z,32.57
2019-02-05T04:21:31.934Z,32.97
2019-02-05T04:24:32.612Z,35.87
2019-02-05T04:27:47.500Z,40.17
2019-02-05T04:30:42.683Z,34.03
2019-02-05T04:33:44.313Z,36.93
2019-02-05T04:36:52.484Z,33.80
2019-02-05T04:39:38.567Z,40.13
2019-02-05T04:42:39.710Z,37.13
2019-02-05T04:45:33.674Z,37.53
2019-02-05T04:48:43.679Z,38.10
2019-02-05T04:51:55.998Z,38.43
2019-02-05T04:55:11.495Z,34.27
2019-02-05T04:58:13.719Z,36.87
2019-02-05T05:01:38.246Z,38.97
2019-02-05T05:04:39.443Z,36.50
2019-02-05T05:08:00.559Z,38.77
2019-02-05T05:10:32.388Z,38.17
2019-02-05T05:13:11.001Z,36.80
2019-02-05T05:15:42.992Z,40.37
2019-02-05T05:18:15.673Z,36.67
2019-02-05T05:20:47.956Z,38.80
2019-02-05T05:23:26.050Z,35.50
2019-02-05T05:25:58.069Z,36.30
2019-02-05T05:28:30.051Z,37.47
2019-02-05T05:31:02.045Z,36.23
2019-02-05T05:33:35.478Z,35.93
2019-02-05T05:36:07.491Z,35.93
2019-02-05T05:38:39.365Z,37.97
2019-02-05T05:41:11.291Z,35.40
2019-02-05T05:43:43.203Z,37.90
2019-02-05T05:46:15.158Z,36.77
2019-02-05T05:48:47.047Z,35.90
2019-02-05T05:51:18.951Z,38.93
2019-02-05T05:53:51.055Z,37.20
2019-02-05T05:56:24.401Z,37.50
2019-02-05T05:58:56.259Z,37.63
2019-02-05T06:01:28.134Z,39.80
2019-02-05T06:03:59.944Z,36.20
2019-02-05T06:06:31.861Z,37.03
2019-02-05T06:09:05.727Z,44.53
2019-02-05T06:11:37.572Z,38.37
2019-02-05T06:14:09.395Z,37.57
2019-02-05T06:16:41.322Z,38.93
2019-02-05T06:19:13.116Z,38.13
2019-02-05T06:21:45.266Z,38.07
2019-02-05T06:24:17.491Z,37.67
2019-02-05T06:26:50.680Z,39.20
2019-02-05T06:29:22.617Z,35.70
2019-02-05T06:31:54.515Z,39.00
2019-02-05T06:34:26.583Z,41.60
2019-02-05T06:36:58.540Z,37.27
2019-02-05T06:39:30.479Z,36.60
2019-02-05T06:42:02.441Z,39.27
2019-02-05T06:44:34.507Z,39.03
2019-02-05T06:47:09.347Z,37.40
2019-02-05T06:49:44.857Z,35.87
2019-02-05T06:52:17.774Z,40.07
2019-02-05T06:54:49.683Z,36.27
2019-02-05T06:57:21.635Z,37.60
2019-02-05T06:59:54.383Z,38.67
2019-02-05T07:02:26.315Z,43.07
2019-02-05T07:04:58.266Z,37.03
2019-02-05T07:07:30.271Z,36.27
2019-02-05T07:10:02.277Z,42.70
2019-02-05T07:12:34.597Z,33.90
2019-02-05T07:15:07.368Z,35.00
2019-02-05T07:17:49.291Z,36.87
2019-02-05T07:20:14.435Z,36.03
2019-02-05T07:22:46.763Z,35.80
2019-02-05T07:25:19.223Z,38.73
2019-02-05T07:27:51.238Z,38.90
2019-02-05T07:30:24.611Z,37.90
2019-02-05T07:32:56.690Z,35.10
2019-02-05T07:35:28.605Z,37.43
2019-02-05T07:38:00.807Z,36.13
2019-02-05T07:40:32.706Z,38.87
2019-02-05T07:43:04.570Z,31.40
2019-02-05T07:45:36.606Z,37.63
2019-02-05T07:48:10.134Z,39.30
2019-02-05T07:50:41.970Z,37.37
2019-02-05T07:53:13.894Z,34.73
2019-02-05T07:55:45.815Z,34.17
2019-02-05T07:58:17.713Z,36.23
2019-02-05T08:00:49.575Z,35.97
2019-02-05T08:03:24.241Z,35.60
2019-02-05T08:05:56.549Z,37.60
2019-02-05T08:08:28.532Z,33.23
2019-02-05T08:10:59.954Z,36.90
2019-02-05T08:13:32.896Z,34.83
2019-02-05T08:16:05.217Z,35.03
2019-02-05T08:18:37.111Z,33.33
2019-02-05T08:21:09.174Z,34.60
2019-02-05T08:23:41.012Z,35.77
2019-02-05T08:26:12.859Z,35.10
2019-02-05T08:28:44.797Z,37.37
2019-02-05T08:31:16.628Z,35.03
2019-02-05T08:33:48.910Z,31.50
2019-02-05T08:36:20.703Z,35.13
2019-02-05T08:38:52.602Z,38.40
2019-02-05T08:41:24.521Z,37.87
2019-02-05T08:43:56.468Z,36.37
2019-02-05T08:46:28.384Z,34.37
2019-02-05T08:49:00.267Z,38.67
2019-02-05T08:51:33.166Z,36.07
2019-02-05T08:54:04.991Z,38.43
2019-02-05T08:56:36.818Z,36.70
2019-02-05T08:59:08.607Z,38.13
2019-02-05T09:01:40.879Z,39.87
2019-02-05T09:04:12.817Z,36.00
2019-02-05T09:06:44.731Z,38.27
2019-02-05T09:09:17.258Z,37.77
2019-02-05T09:11:49.149Z,36.20
2019-02-05T09:14:21.391Z,34.83
2019-02-05T09:16:53.293Z,35.03
2019-02-05T09:19:26.559Z,35.23
2019-02-05T09:21:58.378Z,39.33
2019-02-05T09:24:30.271Z,37.43
2019-02-05T09:27:02.152Z,35.77
2019-02-05T09:29:34.019Z,33.33
2019-02-05T09:32:06.215Z,38.67
2019-02-05T09:34:38.081Z,36.70
2019-02-05T09:37:09.871Z,36.57
2019-02-05T09:39:41.734Z,35.97
2019-02-05T09:42:13.771Z,33.33
2019-02-05T09:44:46.596Z,37.70
2019-02-05T09:47:19.936Z,33.57
2019-02-05T09:49:51.780Z,34.63
2019-02-05T09:52:23.610Z,33.97
2019-02-05T09:54:55.734Z,38.30
2019-02-05T09:57:27.615Z,33.73
2019-02-05T09:59:59.518Z,36.43
2019-02-05T10:02:31.415Z,37.97
2019-02-05T10:05:03.371Z,36.30
2019-02-05T10:07:35.763Z,36.43
2019-02-05T10:10:09.873Z,35.93
2019-02-05T10:12:41.759Z,36.00
2019-02-05T10:15:19.018Z,35.00
2019-02-05T10:17:51.029Z,35.73
2019-02-05T10:20:25.122Z,37.37
2019-02-05T10:22:59.607Z,37.27
2019-02-05T10:25:31.609Z,33.87
2019-02-05T10:28:03.486Z,36.50
2019-02-05T10:30:40.866Z,37.67
2019-02-05T10:33:12.824Z,37.73
2019-02-05T10:35:44.659Z,36.27
2019-02-05T10:38:16.501Z,36.23
2019-02-05T10:40:48.420Z,34.17
2019-02-05T10:43:20.310Z,38.70
2019-02-05T10:45:52.530Z,39.00
2019-02-05T10:48:24.818Z,35.70
2019-02-05T10:50:57.659Z,37.13
2019-02-05T10:53:29.491Z,35.73
2019-02-05T10:56:01.289Z,33.27
2019-02-05T10:58:33.555Z,35.97
2019-02-05T11:01:05.617Z,39.30
2019-02-05T11:03:37.527Z,37.30
2019-02-05T11:06:09.384Z,35.47
2019-02-05T11:08:41.164Z,39.43
2019-02-05T11:11:13.075Z,31.93
2019-02-05T11:13:44.974Z,35.63
2019-02-05T11:16:16.820Z,35.43
2019-02-05T11:18:48.638Z,36.40
2019-02-05T11:21:20.479Z,35.57
2019-02-05T11:23:52.370Z,35.67
2019-02-05T11:26:24.252Z,33.23
2019-02-05T11:28:57.505Z,36.07
2019-02-05T11:31:29.288Z,37.30
2019-02-05T11:34:01.227Z,34.30
2019-02-05T11:36:33.126Z,35.67
2019-02-05T11:39:09.810Z,34.90
2019-02-05T11:41:41.655Z,37.37
2019-02-05T11:44:13.535Z,34.03
2019-02-05T11:46:45.422Z,34.43
2019-02-05T11:49:17.338Z,36.30
2019-02-05T11:51:50.528Z,34.23
2019-02-05T11:54:22.406Z,38.27
2019-02-05T11:56:54.276Z,37.17
2019-02-05T11:59:26.221Z,41.10
2019-02-05T12:01:58.158Z,36.70
2019-02-05T12:04:30.311Z,32.43
2019-02-05T12:07:02.209Z,30.73
2019-02-05T12:09:34.026Z,33.87
2019-02-05T12:12:05.964Z,34.37
2019-02-05T12:14:37.919Z,34.37
2019-02-05T12:17:09.747Z,32.10
2019-02-05T12:19:41.635Z,33.90
2019-02-05T12:22:13.528Z,34.73
2019-02-05T12:24:45.398Z,32.60
2019-02-05T12:27:20.201Z,28.83
2019-02-05T12:29:50.731Z,33.33
2019-02-05T12:32:22.820Z,31.83
2019-02-05T12:34:54.717Z,34.60
2019-02-05T12:37:26.569Z,32.97
2019-02-05T12:39:58.454Z,34.13
2019-02-05T12:42:30.296Z,31.40
2019-02-05T12:45:02.534Z,34.73
2019-02-05T12:47:35.444Z,33.07
2019-02-05T12:50:10.228Z,33.57
2019-02-05T12:52:42.039Z,36.40
2019-02-05T12:55:14.601Z,33.20
2019-02-05T12:57:47.549Z,34.40
2019-02-05T13:00:22.580Z,29.50
2019-02-05T13:02:54.766Z,29.33
2019-02-05T13:05:26.747Z,31.93
2019-02-05T13:07:58.723Z,30.07
2019-02-05T13:10:33.233Z,28.63
2019-02-05T13:13:06.230Z,31.10
2019-02-05T13:15:38.237Z,34.07
2019-02-05T13:18:10.180Z,31.70
2019-02-05T13:20:42.507Z,31.80
2019-02-05T13:23:14.405Z,29.03
2019-02-05T13:25:46.247Z,30.97
2019-02-05T13:28:18.278Z,31.50
2019-02-05T13:30:50.188Z,32.47
2019-02-05T13:33:23.658Z,32.03
2019-02-05T13:35:55.567Z,31.07
2019-02-05T13:38:27.481Z,32.73
2019-02-05T13:40:59.411Z,33.43
2019-02-05T13:43:32.375Z,31.77
2019-02-05T13:46:05.247Z,34.63
2019-02-05T13:48:37.113Z,32.67
2019-02-05T13:51:09.118Z,37.30
2019-02-05T13:53:41.075Z,32.80
2019-02-05T13:56:12.862Z,33.53
2019-02-05T13:58:44.726Z,29.30
2019-02-05T14:01:20.133Z,29.53
2019-02-05T14:03:50.116Z,29.10
2019-02-05T14:06:23.255Z,31.03
2019-02-05T14:08:55.983Z,29.63
2019-02-05T14:11:27.923Z,27.50
2019-02-05T14:13:59.851Z,30.53
2019-02-05T14:16:31.746Z,29.63
2019-02-05T14:19:03.677Z,35.73
2019-02-05T14:21:35.892Z,27.47
2019-02-05T14:24:07.722Z,29.60
2019-02-05T14:26:40.937Z,26.27
2019-02-05T14:29:12.776Z,27.07
2019-02-05T14:31:44.634Z,29.67
2019-02-05T14:34:16.821Z,27.83
2019-02-05T14:36:48.634Z,28.77
2019-02-05T14:39:20.412Z,31.63
2019-02-05T14:41:52.291Z,30.43
2019-02-05T14:44:24.239Z,33.00
2019-02-05T14:46:56.483Z,31.73
2019-02-05T14:49:28.361Z,30.07
2019-02-05T14:52:00.199Z,30.10
2019-02-05T14:54:31.996Z,28.80
2019-02-05T14:57:06.291Z,29.10
2019-02-05T14:59:37.430Z,27.17
2019-02-05T15:02:09.307Z,30.00
2019-02-05T15:04:42.154Z,29.40
2019-02-05T15:07:13.971Z,30.57
2019-02-05T15:09:45.767Z,29.47
2019-02-05T15:12:17.618Z,31.90
2019-02-05T15:14:51.489Z,26.97
2019-02-05T15:17:23.399Z,25.73
2019-02-05T15:19:55.194Z,32.43
2019-02-05T15:22:27.554Z,28.87
2019-02-05T15:24:59.432Z,31.93
2019-02-05T15:27:31.347Z,29.60
2019-02-05T15:30:03.147Z,30.03
2019-02-05T15:32:45.736Z,30.67
2019-02-05T15:35:17.703Z,31.47
2019-02-05T15:37:49.629Z,30.67
2019-02-05T15:40:21.547Z,32.63
2019-02-05T15:42:53.538Z,30.73
2019-02-05T15:45:25.864Z,32.97
2019-02-05T15:47:57.640Z,31.07
2019-02-05T15:50:30.847Z,35.90
2019-02-05T15:53:02.795Z,35.83
2019-02-05T15:55:34.729Z,37.63
2019-02-05T15:58:06.767Z,36.73
2019-02-05T16:00:38.646Z,35.70
2019-02-05T16:03:15.177Z,34.07
2019-02-05T16:05:47.015Z,36.67
2019-02-05T16:08:18.930Z,40.40
2019-02-05T16:10:50.752Z,36.50
2019-02-05T16:13:22.791Z,38.57
2019-02-05T16:15:54.613Z,39.30
2019-02-05T16:18:29.293Z,36.40
2019-02-05T16:21:01.622Z,38.93
2019-02-05T16:23:33.531Z,38.43
2019-02-05T16:26:05.634Z,40.27
2019-02-05T16:28:37.524Z,40.10
2019-02-05T16:31:09.306Z,38.10
2019-02-05T16:33:42.991Z,41.10
2019-02-05T16:36:14.858Z,42.90
2019-02-05T16:38:46.808Z,40.50
2019-02-05T16:41:18.737Z,37.13
2019-02-05T16:43:50.686Z,42.33
2019-02-05T16:46:22.919Z,38.23
2019-02-05T16:48:55.221Z,39.87
2019-02-05T16:51:27.140Z,39.93
2019-02-05T16:53:59.051Z,38.57
2019-02-05T16:56:30.987Z,38.00
2019-02-05T16:59:03.055Z,37.77
2019-02-05T17:01:35.014Z,39.03
2019-02-05T17:04:06.906Z,34.13
2019-02-05T17:06:38.819Z,45.57
2019-02-05T17:09:16.472Z,37.30
2019-02-05T17:11:48.342Z,38.77
2019-02-05T17:14:20.257Z,36.30
2019-02-05T17:16:52.211Z,44.25
2019-02-05T17:19:35.947Z,45.00
2019-02-05T17:22:07.825Z,41.63
2019-02-05T17:24:39.688Z,42.40
2019-02-05T17:27:11.580Z,38.20
2019-02-05T17:29:43.498Z,43.93
2019-02-05T17:32:40.324Z,39.43
2019-02-05T17:35:09.730Z,40.83
2019-02-05T17:37:41.780Z,42.23
2019-02-05T17:40:16.092Z,42.77
2019-02-05T17:42:54.389Z,40.97
2019-02-05T17:45:31.995Z,40.00
2019-02-05T17:48:08.503Z,44.80
2019-02-05T17:50:53.201Z,45.80
2019-02-05T17:53:25.186Z,41.90
2019-02-05T17:55:57.094Z,44.50
2019-02-05T17:58:29.021Z,51.70
2019-02-05T18:01:11.419Z,40.83
2019-02-05T18:03:44.635Z,45.20
2019-02-05T18:06:16.563Z,48.23
2019-02-05T18:08:48.431Z,43.40
2019-02-05T18:11:20.382Z,43.23
2019-02-05T18:13:52.305Z,46.43
2019-02-05T18:16:24.235Z,49.00
2019-02-05T18:18:56.110Z,43.10
2019-02-05T18:21:28.608Z,46.50
2019-02-05T18:24:00.544Z,45.93
2019-02-05T18:26:33.631Z,45.63
2019-02-05T18:29:05.821Z,45.00
2019-02-05T18:31:37.741Z,45.93
2019-02-05T18:34:09.643Z,50.30
2019-02-05T18:36:43.377Z,45.73
2019-02-05T18:39:15.263Z,45.93
2019-02-05T18:41:49.794Z,48.03
2019-02-05T18:44:22.195Z,48.00
2019-02-05T18:46:54.539Z,48.30
2019-02-05T18:49:26.522Z,43.40
2019-02-05T18:51:58.531Z,47.20
2019-02-05T18:54:30.575Z,47.37
2019-02-05T18:57:02.635Z,47.43
2019-02-05T18:59:34.551Z,49.50
2019-02-05T19:02:06.641Z,49.30
2019-02-05T19:04:38.642Z,50.97
2019-02-05T19:07:21.182Z,51.43
2019-02-05T19:09:53.182Z,52.33
2019-02-05T19:12:25.332Z,50.30
2019-02-05T19:15:04.873Z,52.10
2019-02-05T19:17:38.775Z,55.33
2019-02-05T19:20:11.245Z,58.23
2019-02-05T19:22:43.507Z,54.40
2019-02-05T19:25:41.062Z,55.43
2019-02-05T19:28:19.604Z,57.63
2019-02-05T19:30:52.770Z,58.13
2019-02-05T19:33:27.316Z,58.53
2019-02-05T19:35:58.503Z,60.63
2019-02-05T19:38:30.594Z,59.37
2019-02-05T19:41:02.563Z,59.40
2019-02-05T19:43:39.732Z,59.53
2019-02-05T19:46:33.460Z,59.50
2019-02-05T19:49:30.520Z,59.77
2019-02-05T19:52:06.801Z,62.23
2019-02-05T19:54:38.686Z,58.53
2019-02-05T19:57:10.708Z,62.50
2019-02-05T19:59:48.501Z,63.47
2019-02-05T20:02:20.465Z,57.93
2019-02-05T20:04:52.464Z,66.10
2019-02-05T20:07:24.414Z,63.47
2019-02-05T20:10:14.981Z,65.23
2019-02-05T20:12:46.810Z,67.13
2019-02-05T20:15:19.749Z,64.03
2019-02-05T20:17:51.942Z,62.53
2019-02-05T20:20:23.850Z,63.57
2019-02-05T20:22:56.092Z,60.77
2019-02-05T20:25:28.013Z,70.63
2019-02-05T20:27:59.905Z,69.90
2019-02-05T20:30:32.019Z,71.53
2019-02-05T20:33:04.220Z,72.03
2019-02-05T20:35:36.534Z,75.53
2019-02-05T20:38:09.427Z,69.57
2019-02-05T20:40:44.738Z,69.57
2019-02-05T20:43:16.741Z,65.93
2019-02-05T20:45:48.728Z,70.40
2019-02-05T20:48:21.010Z,67.53
2019-02-05T20:50:52.986Z,71.60
2019-02-05T20:53:24.829Z,68.03
2019-02-05T20:55:56.768Z,74.47
2019-02-05T20:58:28.767Z,71.17
2019-02-05T21:01:00.648Z,74.20
2019-02-05T21:03:32.569Z,72.40
2019-02-05T21:06:05.394Z,68.50
2019-02-05T21:08:37.313Z,71.13
2019-02-05T21:11:09.406Z,74.73
2019-02-05T21:13:41.399Z,73.07
2019-02-05T21:16:14.412Z,72.57
2019-02-05T21:18:46.280Z,72.07
2019-02-05T21:21:18.235Z,78.20
2019-02-05T21:23:50.308Z,73.43
2019-02-05T21:26:23.255Z,74.67
2019-02-05T21:28:55.162Z,74.23
2019-02-05T21:31:27.192Z,76.10
2019-02-05T21:34:02.477Z,72.93
2019-02-05T21:36:35.275Z,72.43
2019-02-05T21:39:11.127Z,67.93
2019-02-05T21:41:43.182Z,70.70
2019-02-05T21:44:15.419Z,71.10
2019-02-05T21:46:47.243Z,82.13
2019-02-05T21:49:19.143Z,66.77
2019-02-05T21:51:51.414Z,75.57
2019-02-05T21:54:23.287Z,75.93
2019-02-05T21:56:55.194Z,71.07
2019-02-05T21:59:27.026Z,74.53
2019-02-05T22:01:58.998Z,69.90
2019-02-05T22:04:30.987Z,71.60
2019-02-05T22:07:02.915Z,72.97
2019-02-05T22:09:34.825Z,69.80
2019-02-05T22:12:06.782Z,69.00
2019-02-05T22:14:39.982Z,67.40
2019-02-05T22:17:12.148Z,67.90
2019-02-05T22:19:44.006Z,63.20
2019-02-05T22:22:15.907Z,66.77
2019-02-05T22:24:47.837Z,67.10
2019-02-05T22:27:19.986Z,65.57
2019-02-05T22:29:51.795Z,65.33
2019-02-05T22:32:25.329Z,67.47
2019-02-05T22:34:57.206Z,61.23
2019-02-05T22:37:29.062Z,60.83
2019-02-05T22:40:00.975Z,64.03
2019-02-05T22:42:32.807Z,63.30
2019-02-05T22:45:05.354Z,59.83
2019-02-05T22:47:37.219Z,56.77
2019-02-05T22:50:13.758Z,60.53
2019-02-05T22:52:45.677Z,58.90
2019-02-05T22:55:17.518Z,54.90
2019-02-05T22:57:49.421Z,58.60
2019-02-05T23:00:59.478Z,54.93
2019-02-05T23:03:43.976Z,58.87
2019-02-05T23:06:57.053Z,57.07
2019-02-05T23:09:55.572Z,56.17
2019-02-05T23:12:38.073Z,61.57
2019-02-05T23:15:29.422Z,61.17
2019-02-05T23:18:01.430Z,58.70
2019-02-05T23:20:34.930Z,54.27
2019-02-05T23:23:06.874Z,54.27
2019-02-05T23:25:38.779Z,57.17
2019-02-05T23:28:12.270Z,60.50
2019-02-05T23:30:44.400Z,61.83
2019-02-05T23:33:16.727Z,54.60
2019-02-05T23:35:48.748Z,59.30
2019-02-05T23:38:20.674Z,54.57
2019-02-05T23:40:52.510Z,58.37
2019-02-05T23:43:27.678Z,63.53
2019-02-05T23:46:01.673Z,58.23
2019-02-05T23:48:33.124Z,55.97
2019-02-05T23:51:05.111Z,60.50
2019-02-05T23:53:38.448Z,59.03
2019-02-05T23:56:10.351Z,60.80
2019-02-05T23:58:42.559Z,56.43
